First I — 3ESJ5 — position and weather

sailwx.info

Track history (hours):
 
Tides and Currents Weather Stations Pressure Air Temp Water Temp Dewpoint Dewpoint Depression Visibility Wind Speed Wind Dir Waves Ship Positions

First I

Last reported at 2016-Apr-27 19:33 UTC. Time now 2016-May-01 00:30 UTC.
Position N 01°16' E 104°00'.

Length 190 m; draft 6.5 m.

Type: Cargo ship. MMSI: 370317000.

Date/timePositionNaut miles runAvg speedWind from/ knotsBaromVisibWave heightAir tempDewpointWater temp
2016-Apr-27 19:33N 01°16' E 104°00'3 1.5
2016-Apr-27 17:29N 01°17' E 103°58'0 0.0
2016-Apr-27 16:23N 01°17' E 103°58'0 0.0
2016-Apr-27 15:29N 01°17' E 103°58'0 0.0
2016-Apr-27 14:23N 01°17' E 103°58'0 0.1
2016-Apr-27 13:32N 01°17' E 103°58'2 2.4
2016-Apr-27 12:33N 01°15' E 103°57'1 0.6
2016-Apr-27 11:30N 01°16' E 103°57'2 1.6
2016-Apr-27 10:33N 01°15' E 103°58'4 4.3
2016-Apr-27 09:33N 01°12' E 103°54'3 3.3
2016-Apr-27 08:31N 01°11' E 103°51'3 3.1
2016-Apr-27 07:31N 01°10' E 103°48'9 2.3
2016-Apr-27 03:31N 01°13' E 103°40'3 0.2
2016-Apr-26 09:14N 01°15' E 103°38'0 0.0
2016-Apr-26 08:29N 01°15' E 103°38'0 0.0
2016-Apr-26 07:29N 01°15' E 103°38'0 0.0
2016-Apr-26 05:19N 01°15' E 103°38'0 0.0
2016-Apr-26 04:16N 01°15' E 103°38'0 0.0
2016-Apr-26 00:19N 01°15' E 103°38'0 0.0
2016-Apr-25 18:25N 01°15' E 103°38'0 0.0
2016-Apr-25 16:07N 01°15' E 103°38'0 0.0
2016-Apr-25 15:28N 01°15' E 103°38'0 0.0
2016-Apr-25 14:28N 01°15' E 103°38'0 0.0
2016-Apr-25 13:19N 01°15' E 103°38'0 0.0
2016-Apr-25 11:16N 01°15' E 103°38'0 0.0
2016-Apr-25 04:28N 01°15' E 103°38'0 0.0
2016-Apr-25 03:16N 01°15' E 103°38'0 0.0
2016-Apr-25 02:31N 01°15' E 103°38'0 0.0
2016-Apr-24 18:25N 01°15' E 103°38'0 0.0
2016-Apr-24 10:28N 01°15' E 103°38'0 0.0
2016-Apr-24 04:13N 01°15' E 103°38'0 0.0
2016-Apr-23 22:22N 01°15' E 103°38'0 0.0
2016-Apr-23 20:22N 01°15' E 103°38'0 0.0
2016-Apr-23 19:28N 01°15' E 103°38'0 0.0
2016-Apr-23 18:22N 01°15' E 103°38'0 0.0
2016-Apr-23 17:28N 01°15' E 103°38'0 0.0
2016-Apr-23 13:16N 01°15' E 103°38'0 0.0
2016-Apr-23 12:31N 01°15' E 103°38'0 0.0
2016-Apr-23 04:28N 01°15' E 103°38'0 0.0
2016-Apr-23 03:07N 01°15' E 103°38'0 0.9
2016-Apr-23 02:33N 01°15' E 103°39'2 1.9
2016-Apr-23 01:32N 01°14' E 103°40'0 0.0
2016-Apr-23 00:32N 01°14' E 103°40'0 0.2
2016-Apr-22 23:29N 01°13' E 103°40'2 1.6
2016-Apr-22 22:34N 01°12' E 103°39'1 1.2
2016-Apr-22 21:28N 01°11' E 103°40'4 4.7
2016-Apr-22 20:33N 01°09' E 103°44'8 8.3
2016-Apr-22 19:33N 01°12' E 103°51'9 9.0
2016-Apr-22 18:33N 01°15' E 103°60'  
Track history (hours):
 
Tides and Currents Weather Stations Pressure Air Temp Water Temp Dewpoint Dewpoint Depression Visibility Wind Speed Wind Dir Waves Ship Positions

First I

Last reported at 2016-Apr-27 19:33 UTC. Time now 2016-May-01 00:30 UTC.
Position N 01°16' E 104°00'.

Length 190 m; draft 6.5 m.

Type: Cargo ship. MMSI: 370317000.

Date/timePositionNaut miles runAvg speedWind from/ knotsBaromVisibWave heightAir tempDewpointWater temp
2016-Apr-27 19:33N 01°16' E 104°00'3 1.5
2016-Apr-27 17:29N 01°17' E 103°58'0 0.0
2016-Apr-27 16:23N 01°17' E 103°58'0 0.0
2016-Apr-27 15:29N 01°17' E 103°58'0 0.0
2016-Apr-27 14:23N 01°17' E 103°58'0 0.1
2016-Apr-27 13:32N 01°17' E 103°58'2 2.4
2016-Apr-27 12:33N 01°15' E 103°57'1 0.6
2016-Apr-27 11:30N 01°16' E 103°57'2 1.6
2016-Apr-27 10:33N 01°15' E 103°58'4 4.3
2016-Apr-27 09:33N 01°12' E 103°54'3 3.3
2016-Apr-27 08:31N 01°11' E 103°51'3 3.1
2016-Apr-27 07:31N 01°10' E 103°48'9 2.3
2016-Apr-27 03:31N 01°13' E 103°40'3 0.2
2016-Apr-26 09:14N 01°15' E 103°38'0 0.0
2016-Apr-26 08:29N 01°15' E 103°38'0 0.0
2016-Apr-26 07:29N 01°15' E 103°38'0 0.0
2016-Apr-26 05:19N 01°15' E 103°38'0 0.0
2016-Apr-26 04:16N 01°15' E 103°38'0 0.0
2016-Apr-26 00:19N 01°15' E 103°38'0 0.0
2016-Apr-25 18:25N 01°15' E 103°38'0 0.0
2016-Apr-25 16:07N 01°15' E 103°38'0 0.0
2016-Apr-25 15:28N 01°15' E 103°38'0 0.0
2016-Apr-25 14:28N 01°15' E 103°38'0 0.0
2016-Apr-25 13:19N 01°15' E 103°38'0 0.0
2016-Apr-25 11:16N 01°15' E 103°38'0 0.0
2016-Apr-25 04:28N 01°15' E 103°38'0 0.0
2016-Apr-25 03:16N 01°15' E 103°38'0 0.0
2016-Apr-25 02:31N 01°15' E 103°38'0 0.0
2016-Apr-24 18:25N 01°15' E 103°38'0 0.0
2016-Apr-24 10:28N 01°15' E 103°38'0 0.0
2016-Apr-24 04:13N 01°15' E 103°38'0 0.0
2016-Apr-23 22:22N 01°15' E 103°38'0 0.0
2016-Apr-23 20:22N 01°15' E 103°38'0 0.0
2016-Apr-23 19:28N 01°15' E 103°38'0 0.0
2016-Apr-23 18:22N 01°15' E 103°38'0 0.0
2016-Apr-23 17:28N 01°15' E 103°38'0 0.0
2016-Apr-23 13:16N 01°15' E 103°38'0 0.0
2016-Apr-23 12:31N 01°15' E 103°38'0 0.0
2016-Apr-23 04:28N 01°15' E 103°38'0 0.0
2016-Apr-23 03:07N 01°15' E 103°38'0 0.9
2016-Apr-23 02:33N 01°15' E 103°39'2 1.9
2016-Apr-23 01:32N 01°14' E 103°40'0 0.0
2016-Apr-23 00:32N 01°14' E 103°40'0 0.2
2016-Apr-22 23:29N 01°13' E 103°40'2 1.6
2016-Apr-22 22:34N 01°12' E 103°39'1 1.2
2016-Apr-22 21:28N 01°11' E 103°40'4 4.7
2016-Apr-22 20:33N 01°09' E 103°44'8 8.3
2016-Apr-22 19:33N 01°12' E 103°51'9 9.0
2016-Apr-22 18:33N 01°15' E 103°60'  

Dump ship's entire track history